Flight Track Log - Related Links

Times and Time Zones

All times are in EDT time to prevent confusion due to time zone crossing. See the UCA3601 flight status page for this flight to view local times or setup timezone preferences in your user account.

Time Position Orientation Groundspeed Altitude Reporting Facility
EDT Latitude Longitude Course Direction KTS MPH feet Rate Location/Type
Thu 01:35:54 PM 38.1667 -78.4333 40° Northeast 138 159 2,100  Level Potomac TRACON
Thu 01:36:54 PM 38.2000 -78.4000 38° Northeast 171 197 3,700 1,450 Climbing Potomac TRACON
Thu 01:37:54 PM 38.2500 -78.3500 38° Northeast 182 209 5,000 645 Climbing Potomac TRACON
Thu 01:38:55 PM 38.2833 -78.3000 50° Northeast 237 273 5,000  Level Potomac TRACON
Thu 01:39:49 PM 38.3333 -78.2500 38° Northeast 252 290 5,000  Level Potomac TRACON
Thu 01:40:50 PM 38.3833 -78.1833 46° Northeast 247 284 5,000  Level Potomac TRACON
Thu 01:41:00 PM 38.4100 -78.1271 40° Northeast  Level FlightAware Approximate
Thu 01:41:50 PM 38.4333 -78.1167 46° Northeast 243 280 5,000  Level Potomac TRACON
Thu 01:42:50 PM 38.4833 -78.0667 38° Northeast 235 270 5,000  Level Potomac TRACON
Thu 01:43:50 PM 38.5167 -78.0000 57° Northeast 222 255 5,000  Level Potomac TRACON
Thu 01:44:45 PM 38.5333 -77.9333 72° East 228 262 5,000  Level Potomac TRACON
Thu 01:45:45 PM 38.5333 -77.8500 90° East 229 264 5,000  Level Potomac TRACON
Thu 01:46:45 PM 38.5333 -77.7667 90° East 232 267 5,000  Level Potomac TRACON
Thu 01:47:51 PM 38.5500 -77.6833 76° East 225 259 5,000  Level Potomac TRACON
Thu 01:48:46 PM 38.5500 -77.6167 90° East 230 265 5,000  Level Potomac TRACON
Thu 01:49:52 PM 38.5667 -77.5333 76° East 229 264 5,000  Level Potomac TRACON
Thu 01:50:52 PM 38.6167 -77.4667 46° Northeast 229 264 5,000 -350 Level Potomac TRACON
Thu 01:51:52 PM 38.6500 -77.4000 57° Northeast 243 280 4,300 -526 Descending Potomac TRACON
Thu 01:52:46 PM 38.7000 -77.3667 27° Northeast 237 273 4,000 -150 Descending Potomac TRACON
Thu 01:53:52 PM 38.7833 -77.3500 North 236 272 4,000 -50 Level Potomac TRACON
Thu 01:54:47 PM 38.8333 -77.3500 360° North 231 266 3,900 -574 Descending Potomac TRACON
Thu 01:55:47 PM 38.9000 -77.3500 360° North 223 257 2,900 -429 Descending Potomac TRACON
Thu 01:56:53 PM 38.9667 -77.3500 360° North 215 247 3,000 -143 Climbing Potomac TRACON
Thu 01:57:53 PM 39.0167 -77.3500 360° North 192 221 2,600 -550 Descending Potomac TRACON
Thu 01:58:53 PM 39.0167 -77.4167 270° West 172 198 1,900 -800 Descending Potomac TRACON
Thu 01:59:53 PM 38.9833 -77.4333 201° Southwest 131 151 1,000 -900 Descending Potomac TRACON
Thu 02:01:00 PM 38.9474 -77.4599 223° Southwest  Level Estimated
Thu 02:08:00 PM 38.9474 -77.4599 223° Southwest  Level Estimated

Login

Don't have an account? Register now (free) for customized features, flight alerts, and more!